Time;durP1;ratioP1;P1;durP2;ratioP2;P2;SDS_P1;SDS_P2;PMS_P1;PMS_P2;Temp;Humidity;BMP_temperature;BMP_pressure;BME280_temperature;BME280_humidity;BME280_pressure;Samples;Min_cycle;Max_cycle;Signal;HPM_P1;HPM_P2
2022/02/17 00:02:20;;;;;;;31.15;5.90;;;11.00;97.90;;;;;;5047122;28;20059;-63
2022/02/17 00:04:47;;;;;;;34.88;7.82;;;11.00;98.20;;;;;;5046380;28;20550;-63
2022/02/17 00:07:14;;;;;;;31.92;7.53;;;10.90;98.30;;;;;;5044096;28;20550;-63
2022/02/17 00:09:41;;;;;;;36.55;7.03;;;10.90;97.90;;;;;;5048926;28;20534;-63
2022/02/17 00:12:08;;;;;;;25.48;6.05;;;10.80;97.80;;;;;;5042373;28;20140;-63
2022/02/17 00:14:34;;;;;;;46.67;8.18;;;10.90;98.30;;;;;;5031125;28;20123;-64
2022/02/17 00:17:01;;;;;;;38.67;5.65;;;10.80;98.00;;;;;;5048280;28;20803;-64
2022/02/17 00:19:28;;;;;;;36.55;6.32;;;10.80;98.60;;;;;;5046340;28;20337;-63
2022/02/17 00:21:55;;;;;;;32.35;5.93;;;10.80;98.40;;;;;;5021099;28;20372;-64
2022/02/17 00:24:23;;;;;;;57.30;9.88;;;10.70;98.60;;;;;;5048362;28;20098;-63
2022/02/17 00:26:49;;;;;;;41.33;7.68;;;10.70;98.60;;;;;;5047412;28;20052;-64
2022/02/17 00:29:16;;;;;;;44.50;10.02;;;10.70;98.70;;;;;;5047625;28;20495;-63
2022/02/17 00:31:43;;;;;;;41.50;7.90;;;10.70;98.80;;;;;;5028927;28;20107;-64
2022/02/17 00:34:10;;;;;;;49.63;8.50;;;10.70;98.70;;;;;;5046921;28;20064;-64
2022/02/17 00:36:37;;;;;;;41.35;8.60;;;10.70;99.00;;;;;;5047026;28;20083;-64
2022/02/17 00:39:04;;;;;;;39.30;6.78;;;10.70;98.90;;;;;;5030781;28;20132;-63
2022/02/17 00:41:32;;;;;;;45.20;8.57;;;10.70;99.00;;;;;;5036010;28;20641;-64
2022/02/17 00:43:59;;;;;;;57.35;7.40;;;10.70;99.40;;;;;;5046396;28;20253;-64
2022/02/17 00:46:29;;;;;;;39.80;7.25;;;10.60;99.70;;;;;;5047030;28;20060;-64
2022/02/17 00:48:56;;;;;;;39.30;7.50;;;10.60;99.90;;;;;;5048133;28;20544;-64
2022/02/17 00:51:23;;;;;;;45.08;6.57;;;10.60;99.90;;;;;;5043604;28;20128;-63
2022/02/17 00:53:50;;;;;;;39.50;7.57;;;10.60;99.90;;;;;;5046028;28;20437;-64
2022/02/17 00:56:17;;;;;;;43.83;8.20;;;10.60;99.80;;;;;;5034507;28;20463;-64
2022/02/17 00:58:43;;;;;;;46.13;7.05;;;10.70;99.50;;;;;;5032521;28;20416;-64
2022/02/17 01:01:10;;;;;;;46.85;9.60;;;10.70;99.50;;;;;;5048165;28;20134;-64
2022/02/17 01:03:37;;;;;;;41.63;10.05;;;10.70;99.70;;;;;;5031687;28;20041;-64
2022/02/17 01:06:05;;;;;;;39.20;8.40;;;10.70;99.20;;;;;;5049684;28;20163;-64
2022/02/17 01:08:31;;;;;;;51.42;10.07;;;10.80;99.60;;;;;;5049123;28;20072;-64
2022/02/17 01:10:58;;;;;;;53.67;9.45;;;10.80;99.50;;;;;;5030105;28;20424;-64
2022/02/17 01:13:27;;;;;;;42.47;6.97;;;10.80;99.20;;;;;;5028022;28;20121;-64
2022/02/17 01:15:54;;;;;;;53.47;8.40;;;10.80;98.60;;;;;;5049415;28;20053;-63
2022/02/17 01:18:21;;;;;;;42.63;7.85;;;10.80;98.70;;;;;;5048767;28;20120;-63
2022/02/17 01:20:47;;;;;;;37.10;7.47;;;10.80;98.20;;;;;;5028331;28;20571;-63
2022/02/17 01:23:14;;;;;;;50.42;10.52;;;10.90;97.60;;;;;;5048990;28;20095;-63
2022/02/17 01:25:42;;;;;;;35.97;7.15;;;10.90;98.20;;;;;;5049136;28;20084;-63
2022/02/17 01:28:09;;;;;;;47.00;9.00;;;10.90;97.80;;;;;;5050171;28;20103;-64
2022/02/17 01:30:36;;;;;;;38.67;8.18;;;10.90;97.80;;;;;;5050057;28;20463;-63
2022/02/17 01:33:02;;;;;;;36.97;7.45;;;10.90;98.40;;;;;;5048049;28;20452;-63
2022/02/17 01:35:29;;;;;;;37.50;8.45;;;10.90;97.60;;;;;;5032008;28;20160;-63
2022/02/17 01:37:56;;;;;;;55.20;10.15;;;10.90;97.60;;;;;;5049632;28;20168;-63
2022/02/17 01:40:23;;;;;;;37.35;7.15;;;10.90;97.90;;;;;;5040407;28;20077;-63
2022/02/17 01:42:49;;;;;;;37.78;7.47;;;10.90;97.60;;;;;;5012626;28;20120;-62
2022/02/17 01:45:16;;;;;;;43.83;10.40;;;10.80;97.70;;;;;;5049532;28;20135;-63
2022/02/17 01:47:44;;;;;;;44.58;10.13;;;10.90;97.80;;;;;;5031709;28;20100;-64
2022/02/17 01:50:11;;;;;;;34.65;6.53;;;10.80;97.90;;;;;;5049940;28;20083;-63
2022/02/17 01:52:38;;;;;;;43.65;9.27;;;10.80;96.60;;;;;;5010283;28;20051;-62
2022/02/17 01:55:05;;;;;;;43.10;8.20;;;10.90;97.20;;;;;;5045454;28;20107;-63
2022/02/17 01:57:32;;;;;;;51.45;8.52;;;10.80;96.50;;;;;;5031752;28;20076;-64
2022/02/17 02:02:27;;;;;;;42.85;7.05;;;10.80;96.50;;;;;;3685760;23;20057;-62
2022/02/17 02:04:54;;;;;;;52.13;10.40;;;10.70;96.50;;;;;;5003241;28;20050;-62
2022/02/17 02:07:20;;;;;;;51.58;9.43;;;10.70;96.80;;;;;;5008015;28;20125;-62
2022/02/17 02:09:47;;;;;;;46.72;8.20;;;10.70;96.60;;;;;;5005342;28;20132;-61
2022/02/17 02:12:14;;;;;;;41.47;6.18;;;10.60;96.80;;;;;;4984472;28;20045;-62
2022/02/17 02:14:54;;;;;;;35.78;5.80;;;10.50;96.70;;;;;;5004643;28;20050;-62
2022/02/17 02:17:21;;;;;;;34.47;7.22;;;10.50;96.60;;;;;;4992522;28;20592;-61
2022/02/17 02:19:48;;;;;;;39.72;8.20;;;10.50;97.00;;;;;;5000739;28;20088;-62
2022/02/17 02:22:15;;;;;;;27.70;7.05;;;10.50;96.80;;;;;;4994799;28;20141;-62
2022/02/17 02:24:42;;;;;;;41.58;8.60;;;10.50;96.50;;;;;;4993106;28;20085;-62
2022/02/17 02:27:13;;;;;;;37.17;8.88;;;10.50;97.00;;;;;;5001568;28;20132;-62
2022/02/17 02:29:40;;;;;;;45.92;7.70;;;10.40;96.80;;;;;;4988919;28;20133;-62
2022/02/17 02:32:08;;;;;;;50.63;9.43;;;10.40;97.10;;;;;;5001129;28;20116;-61
2022/02/17 02:34:35;;;;;;;47.30;8.98;;;10.40;97.00;;;;;;4989560;28;20161;-61
2022/02/17 02:37:05;;;;;;;43.33;8.07;;;10.30;97.20;;;;;;5002967;28;20089;-62
2022/02/17 02:39:35;;;;;;;42.65;8.77;;;10.30;96.80;;;;;;4989685;28;20129;-62
2022/02/17 02:42:02;;;;;;;35.28;7.97;;;10.30;96.70;;;;;;4999104;28;20137;-62
2022/02/17 02:44:29;;;;;;;37.92;8.55;;;10.30;96.40;;;;;;4990473;28;20077;-62
2022/02/17 02:46:56;;;;;;;51.75;7.80;;;10.30;96.70;;;;;;5000077;28;20050;-62
2022/02/17 02:49:23;;;;;;;43.15;8.15;;;10.20;96.80;;;;;;5013431;28;20069;-62
2022/02/17 02:51:49;;;;;;;61.90;7.65;;;10.20;96.40;;;;;;5022018;28;20056;-62
2022/02/17 02:54:16;;;;;;;47.50;7.33;;;10.20;96.60;;;;;;4677303;28;10000680;-61
2022/02/17 02:56:43;;;;;;;41.85;9.15;;;10.20;96.90;;;;;;4984468;28;20125;-62
2022/02/17 02:59:10;;;;;;;40.33;7.90;;;10.20;96.60;;;;;;5008515;28;20140;-62
2022/02/17 03:01:37;;;;;;;49.25;8.25;;;10.20;96.60;;;;;;5001000;28;20081;-62
2022/02/17 03:04:04;;;;;;;58.85;9.52;;;10.20;97.30;;;;;;5007629;28;20045;-62
2022/02/17 03:06:30;;;;;;;34.00;6.60;;;10.20;96.60;;;;;;5003768;28;20084;-61
2022/02/17 03:08:57;;;;;;;46.97;8.88;;;10.20;96.30;;;;;;4975049;28;20129;-62
2022/02/17 03:11:24;;;;;;;43.72;8.23;;;10.20;96.90;;;;;;4977105;28;20158;-61
2022/02/17 03:13:51;;;;;;;29.85;6.65;;;10.20;96.40;;;;;;4996193;28;20050;-61
2022/02/17 03:16:17;;;;;;;37.35;7.88;;;10.10;96.40;;;;;;4976216;28;20081;-61
2022/02/17 03:18:44;;;;;;;40.10;6.40;;;10.10;96.60;;;;;;4999943;28;20136;-61
2022/02/17 03:21:11;;;;;;;43.83;9.18;;;10.10;96.90;;;;;;5010703;28;20133;-62
2022/02/17 03:23:38;;;;;;;36.55;8.05;;;10.10;96.90;;;;;;5012206;28;20230;-61
2022/02/17 03:26:05;;;;;;;42.88;7.43;;;10.00;96.90;;;;;;5016616;28;20175;-62
2022/02/17 03:28:31;;;;;;;31.52;6.32;;;10.00;96.80;;;;;;5019610;28;20054;-62
2022/02/17 03:30:58;;;;;;;45.65;7.85;;;10.00;96.60;;;;;;5008091;28;20050;-62
2022/02/17 03:33:25;;;;;;;48.80;8.07;;;10.00;96.80;;;;;;5025772;28;20057;-62
2022/02/17 03:35:51;;;;;;;48.63;8.73;;;10.00;97.00;;;;;;5023819;28;20053;-62
2022/02/17 03:38:18;;;;;;;42.78;8.30;;;10.00;97.00;;;;;;5031526;28;20033;-62
2022/02/17 03:40:45;;;;;;;38.45;8.18;;;10.00;97.20;;;;;;5016865;28;20038;-64
2022/02/17 03:43:12;;;;;;;45.47;8.52;;;9.90;96.80;;;;;;5014386;28;20043;-63
2022/02/17 03:45:38;;;;;;;53.72;9.50;;;10.00;96.70;;;;;;4993409;28;20081;-63
2022/02/17 03:48:05;;;;;;;34.65;6.43;;;9.90;96.70;;;;;;4996699;28;20089;-62
2022/02/17 03:50:32;;;;;;;50.67;8.50;;;10.00;96.40;;;;;;5010078;28;20049;-63
2022/02/17 03:52:59;;;;;;;48.35;9.65;;;10.00;96.60;;;;;;4990680;28;20116;-63
2022/02/17 03:55:25;;;;;;;39.92;8.75;;;10.00;96.80;;;;;;4997360;28;20129;-62
2022/02/17 03:57:54;;;;;;;40.17;8.35;;;9.90;96.70;;;;;;4997103;28;20047;-63
2022/02/17 04:00:21;;;;;;;50.42;10.18;;;9.90;96.80;;;;;;5005816;28;20137;-63
2022/02/17 04:02:48;;;;;;;43.65;9.40;;;9.90;96.70;;;;;;5013278;28;20060;-62
2022/02/17 04:05:14;;;;;;;48.22;8.20;;;9.90;96.60;;;;;;5029751;28;20164;-62
2022/02/17 04:07:41;;;;;;;43.13;10.63;;;9.90;96.90;;;;;;5025475;28;20086;-62
2022/02/17 04:10:08;;;;;;;40.28;7.35;;;9.80;96.50;;;;;;5001622;28;20134;-62
2022/02/17 04:12:35;;;;;;;45.55;8.43;;;9.80;96.70;;;;;;5010396;28;20081;-62
2022/02/17 04:15:02;;;;;;;40.38;7.93;;;9.80;96.60;;;;;;5005171;28;20125;-61
2022/02/17 04:17:29;;;;;;;38.35;7.55;;;9.80;96.80;;;;;;4992646;28;20114;-61
2022/02/17 04:19:56;;;;;;;42.45;7.07;;;9.80;97.00;;;;;;5000611;28;20037;-62
2022/02/17 04:22:23;;;;;;;41.97;8.07;;;9.70;96.70;;;;;;5011377;28;20516;-62
2022/02/17 04:24:49;;;;;;;31.85;6.47;;;9.70;96.50;;;;;;4999812;28;20137;-61
2022/02/17 04:27:16;;;;;;;38.05;9.25;;;9.70;96.30;;;;;;4992790;28;20354;-61
2022/02/17 04:29:43;;;;;;;38.25;6.38;;;9.70;96.90;;;;;;4995996;28;20137;-61
2022/02/17 04:32:09;;;;;;;42.15;7.07;;;9.70;96.80;;;;;;5010187;28;20584;-62
2022/02/17 04:34:36;;;;;;;46.58;8.48;;;9.70;96.70;;;;;;5007998;28;20121;-61
2022/02/17 04:37:03;;;;;;;29.73;7.18;;;9.70;97.10;;;;;;5009330;28;20172;-62
2022/02/17 04:39:30;;;;;;;49.47;7.65;;;9.70;97.30;;;;;;5007483;28;20073;-62
2022/02/17 04:44:42;;;;;;;46.60;7.78;;;9.70;97.60;;;;;;4997550;28;20694;-62
2022/02/17 04:47:09;;;;;;;36.72;7.28;;;9.70;97.70;;;;;;4993232;28;20086;-61
2022/02/17 04:49:36;;;;;;;54.40;10.80;;;9.70;97.60;;;;;;4983509;28;20117;-62
2022/02/17 04:52:03;;;;;;;35.50;5.65;;;9.70;97.80;;;;;;5004823;28;20089;-61
2022/02/17 04:54:30;;;;;;;37.08;7.47;;;9.70;97.50;;;;;;5007243;28;20074;-61
2022/02/17 04:56:57;;;;;;;36.20;5.90;;;9.60;97.80;;;;;;5000896;28;20082;-61
2022/02/17 04:59:23;;;;;;;31.15;6.05;;;9.60;97.50;;;;;;4995529;28;20092;-62
2022/02/17 05:01:50;;;;;;;44.75;6.88;;;9.60;97.80;;;;;;4998998;28;20175;-61
2022/02/17 05:04:20;;;;;;;30.42;6.38;;;9.60;97.70;;;;;;4993379;28;20044;-61
2022/02/17 05:06:47;;;;;;;38.78;7.90;;;9.60;97.60;;;;;;4982274;28;20042;-61
2022/02/17 05:09:14;;;;;;;32.15;5.70;;;9.60;97.60;;;;;;5011079;28;20417;-61
2022/02/17 05:11:41;;;;;;;36.33;5.45;;;9.60;97.80;;;;;;5002644;28;20057;-62
2022/02/17 05:14:07;;;;;;;31.20;5.93;;;9.60;98.10;;;;;;4991754;28;20105;-61
2022/02/17 05:16:34;;;;;;;30.15;5.85;;;9.60;98.00;;;;;;5003910;28;20053;-62
2022/02/17 05:19:02;;;;;;;33.08;7.65;;;9.70;97.80;;;;;;4991284;28;20042;-61
2022/02/17 05:21:29;;;;;;;37.13;6.20;;;9.60;97.70;;;;;;5003800;28;20096;-61
2022/02/17 05:23:59;;;;;;;32.42;5.57;;;9.60;97.80;;;;;;4997797;28;20492;-62
2022/02/17 05:26:26;;;;;;;41.10;8.57;;;9.60;97.70;;;;;;5004095;28;20085;-62
2022/02/17 05:28:52;;;;;;;29.63;5.60;;;9.60;98.00;;;;;;5005706;28;20081;-62
2022/02/17 05:31:19;;;;;;;40.50;7.50;;;9.60;98.20;;;;;;5004544;28;20133;-61
2022/02/17 05:33:46;;;;;;;33.70;6.60;;;9.60;98.30;;;;;;4977759;28;20054;-62
2022/02/17 05:36:13;;;;;;;28.83;6.55;;;9.60;98.50;;;;;;4995016;28;20046;-62
2022/02/17 05:38:39;;;;;;;42.08;8.20;;;9.60;98.50;;;;;;5004080;28;20068;-62
2022/02/17 05:41:06;;;;;;;44.92;6.78;;;9.50;98.60;;;;;;5006310;28;20129;-62
2022/02/17 05:43:33;;;;;;;35.15;6.40;;;9.50;98.70;;;;;;5003044;28;20041;-62
2022/02/17 05:46:02;;;;;;;32.08;5.88;;;9.40;98.90;;;;;;4989010;28;20054;-62
2022/02/17 05:48:34;;;;;;;40.88;6.90;;;9.40;98.90;;;;;;5000496;28;20085;-62
2022/02/17 05:51:01;;;;;;;29.33;5.75;;;9.40;98.90;;;;;;4993229;28;20085;-62
2022/02/17 05:53:27;;;;;;;38.13;7.63;;;9.30;99.00;;;;;;5002278;28;20523;-62
2022/02/17 05:55:54;;;;;;;41.83;6.13;;;9.30;99.00;;;;;;4991168;28;20137;-62
2022/02/17 05:58:21;;;;;;;46.92;6.72;;;9.30;99.00;;;;;;4999521;28;20164;-62
2022/02/17 06:00:49;;;;;;;34.70;5.93;;;9.30;99.10;;;;;;5010260;28;20076;-62
2022/02/17 06:03:15;;;;;;;23.25;4.82;;;9.30;99.00;;;;;;4997094;28;20180;-62
2022/02/17 06:05:42;;;;;;;31.25;6.03;;;9.30;98.90;;;;;;5010107;28;20093;-61
2022/02/17 06:08:09;;;;;;;30.23;4.90;;;9.30;98.90;;;;;;5004854;28;20157;-62
2022/02/17 06:10:36;;;;;;;34.92;5.32;;;9.30;98.90;;;;;;4990546;28;20486;-61
2022/02/17 06:13:03;;;;;;;39.08;5.88;;;9.30;99.30;;;;;;5001476;28;20448;-61
2022/02/17 06:15:30;;;;;;;29.60;4.28;;;9.30;99.10;;;;;;4991250;28;20120;-62
2022/02/17 06:17:57;;;;;;;37.92;7.18;;;9.30;98.90;;;;;;4993714;28;20200;-61
2022/02/17 06:20:24;;;;;;;29.83;6.03;;;9.30;99.10;;;;;;4999343;28;20129;-62
2022/02/17 06:22:51;;;;;;;27.65;4.93;;;9.20;98.90;;;;;;4997771;28;20159;-62
2022/02/17 06:25:19;;;;;;;24.02;4.80;;;9.20;99.00;;;;;;4992488;28;20072;-62
2022/02/17 06:27:47;;;;;;;31.38;6.55;;;9.20;99.10;;;;;;5005408;28;20054;-61
2022/02/17 06:30:13;;;;;;;31.50;5.90;;;9.20;99.20;;;;;;5002370;28;20077;-62
2022/02/17 06:32:45;;;;;;;28.58;5.28;;;9.20;99.10;;;;;;5004570;28;20084;-62
2022/02/17 06:35:11;;;;;;;37.65;5.03;;;9.10;99.20;;;;;;4998832;28;20047;-61
2022/02/17 06:37:38;;;;;;;28.75;4.10;;;9.10;99.10;;;;;;5000909;28;20487;-61
2022/02/17 06:40:05;;;;;;;30.63;6.00;;;9.10;99.20;;;;;;5000756;28;20134;-61
2022/02/17 06:42:32;;;;;;;33.28;5.45;;;9.10;99.30;;;;;;4990408;28;20129;-61
2022/02/17 06:44:59;;;;;;;30.20;5.25;;;9.00;99.20;;;;;;4998065;28;20430;-61
2022/02/17 06:47:26;;;;;;;36.95;9.43;;;9.00;99.30;;;;;;5008829;28;20080;-61
2022/02/17 06:49:53;;;;;;;28.95;5.32;;;9.00;99.40;;;;;;5004780;28;20046;-62
2022/02/17 06:52:20;;;;;;;23.77;4.53;;;8.90;99.40;;;;;;4997286;28;20137;-62
2022/02/17 06:54:47;;;;;;;31.27;4.43;;;8.90;99.40;;;;;;4985728;28;20073;-62
2022/02/17 06:57:21;;;;;;;25.42;5.03;;;8.90;99.40;;;;;;4990403;28;20108;-62
2022/02/17 06:59:48;;;;;;;28.63;5.10;;;8.90;99.40;;;;;;4993852;28;20070;-61
2022/02/17 07:02:20;;;;;;;24.75;4.05;;;8.90;99.40;;;;;;5007360;28;20089;-62
2022/02/17 07:04:47;;;;;;;30.35;5.43;;;8.80;99.50;;;;;;5004877;28;20077;-62
2022/02/17 07:07:14;;;;;;;29.50;5.55;;;8.80;99.50;;;;;;4990796;28;20081;-62
2022/02/17 07:09:40;;;;;;;25.63;4.72;;;8.80;99.80;;;;;;4989390;28;20133;-62
2022/02/17 07:12:08;;;;;;;31.38;5.95;;;8.80;99.80;;;;;;4989353;28;20164;-62
2022/02/17 07:14:34;;;;;;;35.65;6.00;;;8.70;99.90;;;;;;4992075;28;20125;-62
2022/02/17 07:17:01;;;;;;;44.88;6.32;;;8.70;99.90;;;;;;5002392;28;20050;-61
2022/02/17 07:19:28;;;;;;;29.63;5.20;;;8.80;99.90;;;;;;4986749;28;20467;-62
2022/02/17 07:21:54;;;;;;;23.92;4.93;;;8.70;99.90;;;;;;4997604;28;20078;-61
2022/02/17 07:24:21;;;;;;;23.58;6.28;;;8.70;99.90;;;;;;4988620;28;20081;-61
2022/02/17 07:26:48;;;;;;;26.27;6.43;;;8.70;99.80;;;;;;4989314;28;20129;-62
2022/02/17 07:29:16;;;;;;;24.77;4.63;;;8.80;99.90;;;;;;4991596;28;20042;-62
2022/02/17 07:31:43;;;;;;;21.63;4.50;;;8.70;99.70;;;;;;4997087;28;20062;-61
2022/02/17 07:34:11;;;;;;;29.45;6.15;;;8.70;99.50;;;;;;5008189;28;20050;-61
2022/02/17 07:36:37;;;;;;;31.85;5.38;;;8.70;99.30;;;;;;5002619;28;20077;-62
2022/02/17 07:39:04;;;;;;;25.58;3.80;;;8.70;99.40;;;;;;4998497;28;20565;-61
2022/02/17 07:41:35;;;;;;;17.13;3.60;;;8.80;98.80;;;;;;4998145;28;20054;-61
2022/02/17 07:44:02;;;;;;;24.00;3.67;;;8.70;98.70;;;;;;5000038;28;20133;-61
2022/02/17 07:46:28;;;;;;;20.98;3.65;;;8.80;98.70;;;;;;4996997;28;20054;-61
2022/02/17 07:48:55;;;;;;;22.70;3.92;;;8.80;98.70;;;;;;4999771;28;20121;-61
2022/02/17 07:51:22;;;;;;;21.15;4.47;;;8.80;98.70;;;;;;5002371;28;20133;-62
2022/02/17 07:53:49;;;;;;;25.48;3.83;;;8.80;98.50;;;;;;4981469;28;20050;-61
2022/02/17 07:56:15;;;;;;;30.73;6.35;;;8.80;98.80;;;;;;4999158;28;20078;-61
2022/02/17 07:58:43;;;;;;;21.95;4.05;;;8.70;98.80;;;;;;4996844;28;20138;-62
2022/02/17 08:01:10;;;;;;;23.55;5.18;;;8.70;98.90;;;;;;4996281;28;20042;-62
2022/02/17 08:03:37;;;;;;;23.77;4.32;;;8.70;98.80;;;;;;5001509;28;20054;-62
2022/02/17 08:06:05;;;;;;;12.35;3.17;;;8.80;98.90;;;;;;5012342;28;20078;-62
2022/02/17 08:08:52;;;;;;;19.23;3.58;;;8.80;98.70;;;;;;5004239;28;20057;-61
2022/02/17 08:11:19;;;;;;;26.15;4.03;;;8.70;98.20;;;;;;5004370;28;20096;-62
2022/02/17 08:13:45;;;;;;;24.58;3.92;;;8.80;98.70;;;;;;4656298;28;10000662;-62
2022/02/17 08:16:12;;;;;;;22.90;3.63;;;8.80;98.80;;;;;;4997651;28;20129;-62
2022/02/17 08:18:39;;;;;;;23.83;5.75;;;8.80;98.70;;;;;;4998062;28;20136;-63
2022/02/17 08:21:26;;;;;;;17.10;4.78;;;8.90;98.50;;;;;;4985213;28;20046;-63
2022/02/17 08:23:52;;;;;;;20.13;5.22;;;8.90;98.40;;;;;;4999545;28;20050;-63
2022/02/17 08:26:21;;;;;;;21.00;4.70;;;8.90;98.90;;;;;;4989269;28;20489;-63
2022/02/17 08:28:55;;;;;;;25.88;4.50;;;8.90;98.80;;;;;;5008150;28;20081;-63
2022/02/17 08:31:22;;;;;;;;;;;8.90;98.70;;;;;;4992176;28;20091;-63
2022/02/17 08:33:49;;;;;;;34.08;5.50;;;9.00;98.60;;;;;;5008018;28;20017;-63
2022/02/17 08:36:18;;;;;;;30.40;6.20;;;9.00;98.70;;;;;;5006926;28;20065;-63
2022/02/17 08:38:45;;;;;;;20.88;4.25;;;9.00;98.80;;;;;;4999441;28;20077;-63
2022/02/17 08:41:12;;;;;;;20.88;4.40;;;9.00;99.40;;;;;;4990487;28;20128;-63
2022/02/17 08:43:39;;;;;;;24.63;4.07;;;9.00;99.00;;;;;;4998889;28;20073;-64
2022/02/17 08:46:06;;;;;;;24.63;4.43;;;9.10;99.10;;;;;;4981419;28;20050;-62
2022/02/17 08:48:35;;;;;;;26.40;4.38;;;9.00;98.70;;;;;;4998418;28;20046;-64
2022/02/17 08:51:01;;;;;;;22.08;4.22;;;9.10;98.50;;;;;;4996561;28;20132;-64
2022/02/17 08:53:28;;;;;;;15.10;4.32;;;9.20;98.40;;;;;;5003178;28;20456;-67
2022/02/17 08:55:55;;;;;;;30.88;3.90;;;9.20;97.90;;;;;;4991402;28;20092;-64
2022/02/17 08:58:22;;;;;;;19.52;4.05;;;9.20;97.80;;;;;;4980301;28;20914;-64
2022/02/17 09:00:49;;;;;;;18.30;3.95;;;9.50;98.60;;;;;;5004155;28;20062;-63
2022/02/17 09:03:16;;;;;;;23.02;3.85;;;9.50;97.40;;;;;;5002919;28;20185;-64
2022/02/17 09:05:43;;;;;;;21.55;3.28;;;9.50;97.60;;;;;;5005033;28;20050;-63
2022/02/17 09:08:32;;;;;;;17.65;3.63;;;9.60;97.60;;;;;;4999069;28;20060;-63
2022/02/17 09:10:58;;;;;;;25.92;3.85;;;9.60;96.70;;;;;;4996560;28;20049;-63
2022/02/17 09:13:25;;;;;;;12.13;1.95;;;9.70;96.30;;;;;;4996729;28;20037;-63
2022/02/17 09:15:52;;;;;;;18.80;4.50;;;9.80;96.00;;;;;;4993981;28;20169;-62
2022/02/17 09:18:19;;;;;;;19.08;3.55;;;9.80;95.70;;;;;;4991635;28;20081;-63
2022/02/17 09:20:46;;;;;;;11.75;3.20;;;9.90;95.60;;;;;;4998701;28;20177;-62
2022/02/17 09:23:13;;;;;;;16.52;3.05;;;10.00;95.40;;;;;;4996258;28;20052;-64
2022/02/17 09:25:40;;;;;;;31.52;5.82;;;10.00;95.60;;;;;;4997105;28;20054;-63
2022/02/17 09:28:09;;;;;;;24.45;3.95;;;10.00;95.70;;;;;;4989490;28;20077;-62
2022/02/17 09:30:37;;;;;;;11.25;3.17;;;9.90;95.70;;;;;;4996563;28;20150;-62
2022/02/17 09:33:03;;;;;;;13.00;2.55;;;9.80;96.10;;;;;;4997794;28;20085;-64
2022/02/17 09:35:30;;;;;;;17.30;3.58;;;9.70;95.00;;;;;;4995688;28;20054;-63
2022/02/17 09:37:57;;;;;;;16.60;3.35;;;9.70;95.40;;;;;;4994500;28;20181;-64
2022/02/17 09:40:27;;;;;;;17.52;2.65;;;9.80;94.90;;;;;;4993861;28;20085;-63
2022/02/17 09:42:54;;;;;;;8.57;3.28;;;9.80;94.30;;;;;;5005441;28;20061;-63
2022/02/17 09:45:27;;;;;;;7.13;2.08;;;9.80;94.40;;;;;;4996185;28;20046;-63
2022/02/17 09:47:55;;;;;;;27.08;3.10;;;9.80;94.00;;;;;;4988835;28;20136;-63
2022/02/17 09:50:22;;;;;;;11.88;2.33;;;9.90;94.70;;;;;;4996445;28;20081;-63
2022/02/17 09:52:49;;;;;;;13.80;2.85;;;10.00;94.60;;;;;;5001716;28;20054;-63
2022/02/17 09:55:16;;;;;;;15.05;2.88;;;9.90;94.20;;;;;;5002839;28;20129;-62
2022/02/17 09:57:43;;;;;;;7.45;1.92;;;9.90;94.90;;;;;;4999425;28;20054;-64
2022/02/17 10:00:11;;;;;;;10.18;1.35;;;9.80;92.00;;;;;;5001900;28;20523;-64
2022/02/17 10:02:41;;;;;;;11.88;1.70;;;9.70;90.00;;;;;;4990798;28;20114;-64
2022/02/17 10:05:11;;;;;;;9.77;1.83;;;9.70;90.10;;;;;;4973223;28;20129;-65
2022/02/17 10:07:43;;;;;;;10.15;1.95;;;9.70;90.30;;;;;;5000437;28;20131;-63
2022/02/17 10:10:15;;;;;;;8.27;1.45;;;9.50;87.90;;;;;;4997827;28;20109;-63
2022/02/17 10:12:59;;;;;;;6.20;1.67;;;9.50;88.20;;;;;;4991486;28;20057;-63
2022/02/17 10:15:31;;;;;;;8.38;1.33;;;9.50;88.20;;;;;;4977472;28;20081;-63
2022/02/17 10:18:02;;;;;;;10.68;1.55;;;9.50;87.70;;;;;;4990791;28;20115;-63
2022/02/17 10:20:31;;;;;;;9.57;1.50;;;9.50;87.30;;;;;;4971770;28;20134;-63
2022/02/17 10:23:07;;;;;;;7.70;1.73;;;9.50;89.10;;;;;;4971431;28;20061;-63
2022/02/17 10:25:34;;;;;;;10.48;2.15;;;9.70;89.00;;;;;;4988358;28;20173;-63
2022/02/17 10:28:12;;;;;;;9.07;1.73;;;9.80;89.80;;;;;;4997289;28;20849;-63
2022/02/17 10:30:40;;;;;;;15.50;2.10;;;9.80;88.40;;;;;;5001715;28;20081;-63
2022/02/17 10:33:09;;;;;;;6.50;1.25;;;9.90;90.10;;;;;;4995187;28;20054;-65
2022/02/17 10:35:36;;;;;;;12.02;2.38;;;9.80;90.10;;;;;;4991312;28;20092;-64
2022/02/17 10:38:05;;;;;;;7.05;1.50;;;9.90;90.90;;;;;;4965535;28;20086;-63
2022/02/17 10:40:33;;;;;;;9.10;1.58;;;10.00;90.10;;;;;;4999744;28;20054;-64
2022/02/17 10:43:11;;;;;;;10.77;2.17;;;10.00;90.20;;;;;;4994710;28;20579;-63
2022/02/17 10:45:41;;;;;;;8.40;2.17;;;9.90;90.40;;;;;;5004951;28;20077;-63
2022/02/17 10:48:24;;;;;;;17.13;2.15;;;10.10;91.40;;;;;;5003515;28;20144;-62
2022/02/17 10:51:13;;;;;;;9.63;2.53;;;10.30;90.60;;;;;;5000289;28;20128;-64
2022/02/17 10:53:42;;;;;;;6.80;1.52;;;10.40;90.70;;;;;;4999488;28;20042;-64
2022/02/17 10:56:11;;;;;;;12.90;2.15;;;10.40;90.60;;;;;;4997810;28;20057;-67
2022/02/17 10:58:43;;;;;;;14.15;2.08;;;10.30;90.00;;;;;;4979992;28;20050;-64
2022/02/17 11:01:10;;;;;;;12.30;2.38;;;10.40;89.80;;;;;;5003537;28;20198;-64
2022/02/17 11:03:37;;;;;;;19.58;3.08;;;10.40;89.80;;;;;;4996229;28;20505;-64
2022/02/17 11:06:08;;;;;;;7.45;1.52;;;10.50;90.30;;;;;;4986047;28;20497;-65
2022/02/17 11:08:35;;;;;;;12.20;2.17;;;10.50;90.00;;;;;;4999580;28;20486;-64
2022/02/17 11:11:04;;;;;;;12.80;2.30;;;10.50;90.40;;;;;;4986391;28;20137;-63
2022/02/17 11:13:31;;;;;;;8.48;1.70;;;10.60;91.10;;;;;;4992462;28;20097;-64
2022/02/17 11:16:04;;;;;;;13.50;2.70;;;10.50;89.20;;;;;;5004457;28;20135;-63
2022/02/17 11:18:31;;;;;;;11.27;2.55;;;10.50;89.40;;;;;;4999045;28;20120;-64
2022/02/17 11:20:58;;;;;;;8.75;2.55;;;10.50;87.40;;;;;;4985803;28;20086;-63
2022/02/17 11:23:32;;;;;;;13.00;1.90;;;10.50;87.60;;;;;;4989603;28;20090;-65
2022/02/17 11:26:00;;;;;;;11.38;1.75;;;10.40;86.00;;;;;;4986815;28;20053;-63
2022/02/17 11:28:34;;;;;;;11.88;1.60;;;10.30;86.00;;;;;;5000848;28;20052;-64
2022/02/17 11:31:03;;;;;;;12.23;3.20;;;10.20;86.90;;;;;;4976471;28;20060;-63
2022/02/17 11:33:37;;;;;;;9.98;1.92;;;10.30;85.10;;;;;;5001202;28;20073;-61
2022/02/17 11:36:19;;;;;;;6.88;1.60;;;10.40;87.60;;;;;;4999703;28;20472;-63
2022/02/17 11:38:54;;;;;;;6.40;1.70;;;10.50;85.40;;;;;;4655438;28;10001165;-64
2022/02/17 11:41:31;;;;;;;10.52;1.40;;;10.50;81.90;;;;;;4989846;28;20104;-64
2022/02/17 11:44:13;;;;;;;14.90;1.73;;;10.50;83.40;;;;;;4986387;28;20560;-62
2022/02/17 11:46:40;;;;;;;10.32;1.85;;;10.60;82.50;;;;;;4971677;28;20046;-63
2022/02/17 11:49:11;;;;;;;5.10;1.23;;;10.60;85.60;;;;;;5006112;28;20140;-63
2022/02/17 11:51:38;;;;;;;8.38;1.85;;;10.60;83.50;;;;;;5003855;28;20042;-62
2022/02/17 11:54:15;;;;;;;7.78;1.88;;;10.60;83.40;;;;;;5001363;28;20065;-62
2022/02/17 11:56:45;;;;;;;17.15;1.80;;;10.70;80.30;;;;;;5006750;28;20054;-62
2022/02/17 11:59:24;;;;;;;7.82;1.85;;;10.70;84.00;;;;;;4997484;28;20046;-62
2022/02/17 12:01:51;;;;;;;8.95;2.55;;;10.70;80.30;;;;;;4989996;28;20508;-62
2022/02/17 12:04:38;;;;;;;11.95;2.63;;;10.70;81.80;;;;;;4993780;28;20057;-62
2022/02/17 12:07:24;;;;;;;7.68;1.60;;;10.80;85.70;;;;;;4989060;28;20129;-61
2022/02/17 12:09:53;;;;;;;6.60;1.73;;;10.90;82.30;;;;;;5004609;28;20173;-62
2022/02/17 12:12:37;;;;;;;15.45;3.55;;;11.00;80.50;;;;;;5008438;28;20157;-66
2022/02/17 12:15:05;;;;;;;5.63;1.15;;;11.00;82.50;;;;;;4998065;28;20425;-62
2022/02/17 12:17:40;;;;;;;8.77;1.70;;;11.10;80.20;;;;;;5006504;28;20089;-62
2022/02/17 12:20:20;;;;;;;8.20;1.35;;;11.10;80.60;;;;;;5006649;28;20446;-62
2022/02/17 12:22:58;;;;;;;12.43;2.00;;;11.20;79.60;;;;;;5008155;28;20057;-61
2022/02/17 12:25:29;;;;;;;4.75;1.52;;;11.30;79.40;;;;;;4994455;28;20089;-63
2022/02/17 12:28:03;;;;;;;6.10;1.85;;;11.40;76.20;;;;;;5008000;28;20614;-62
2022/02/17 12:30:38;;;;;;;11.40;2.03;;;11.40;75.50;;;;;;5003525;28;20050;-62
2022/02/17 12:33:04;;;;;;;;;;;11.50;75.50;;;;;;4989581;28;20054;-63
2022/02/17 12:35:32;;;;;;;12.27;2.55;;;11.60;75.10;;;;;;4992877;28;19976;-61
2022/02/17 12:38:09;;;;;;;11.38;1.75;;;11.70;76.20;;;;;;5004505;28;20049;-62
2022/02/17 12:40:37;;;;;;;10.65;2.40;;;11.70;73.60;;;;;;5004331;28;20481;-62
2022/02/17 12:43:04;;;;;;;6.60;2.20;;;11.60;76.10;;;;;;5001682;28;20300;-62
2022/02/17 12:45:39;;;;;;;8.50;1.42;;;11.70;80.60;;;;;;4995329;28;20108;-62
2022/02/17 12:48:07;;;;;;;9.65;2.15;;;11.70;77.80;;;;;;4993085;28;20104;-62
2022/02/17 12:50:54;;;;;;;15.52;2.20;;;11.70;75.90;;;;;;4993034;28;20483;-62
2022/02/17 12:53:21;;;;;;;7.47;1.63;;;11.70;77.20;;;;;;4985918;28;20081;-62
2022/02/17 12:55:52;;;;;;;8.85;2.03;;;11.80;77.90;;;;;;5004664;28;20093;-63